首页
METAR-TAF:

METAR-TAF

机场 :

波特兰国际机场

波特蘭, 俄勒冈州, 美国

纬度: 45-35-27N, 经度: 122-36-01W, 海拔: 8米

当前天气观测

该预报发布于13分钟前的16:56 UTC
风速3节,风向多变
温度 21°C
湿度 64%
气压 1019 hPa
能見度: 16.1公里
少量云层高于2000英尺
散云层高于2500英尺
多云层高于9000英尺
多云层高于15000英尺

METAR: KPDX 211656Z VRB03KT 10SM FEW020 SCT025 BKN090 BKN150 21/14 A3008 RMK AO2 LTG DSNT N RAE55 TSE55 ACC E CB DSNT N AND S P0000 T02060139 $

时间: 10:09 (17:09 UTC)

预报

该预报发布于44分钟前的16:25 UTC
预报有效从21日的 16点(UTC)到 22日的 12点(UTC)
风速10节,风向北转西北
能見度: 10公里
多云层高于2000英尺
多云层高于11000英尺, 积雨云.
附近有雷暴
从 21日的 1730点(UTC)
风速10节,风向北转西北
能見度: 10公里
少量云层高于2000英尺
多云层高于10000英尺
从 21日的 2100点(UTC)
风速10节,风向西北
能見度: 10公里
散云层高于25000英尺
从 22日的 0800点(UTC)
风速6节,风向西北
能見度: 10公里
散云层高于25000英尺

TAF: KPDX 211625Z 2116/2212 33010KT P6SM VCTS BKN020 BKN110CB FM211730 33010KT P6SM FEW020 BKN100 FM212100 31010KT P6SM SCT250 FM220800 31006KT P6SM SCT250

超过4000个机场的气象观测和天气预报(METAR&TAF报告)。

可查询的气象台以黄色和红色小点在地图上表示。

将鼠标移到小点上方,可查看气象台名称。

然后点击查看天气观测和预报。

如需切换地图:点击带黑十字的绿色按钮放大地图;点击带横线的绿色按钮缩小地图;或者点击绿色箭头查看邻近地区的地图。


METAR-TAF: